sensor_id;sensor_type;location;lat;lon;timestamp;pressure;altitude;pressure_sealevel;temperature
76007;BMP280;64699;0.000;0.000;2023-06-14T00:00:20;100698.19;;;20.42
76007;BMP280;64699;0.000;0.000;2023-06-14T00:02:46;100694.31;;;20.45
76007;BMP280;64699;0.000;0.000;2023-06-14T00:05:11;100690.09;;;20.44
76007;BMP280;64699;0.000;0.000;2023-06-14T00:07:40;100699.13;;;20.45
76007;BMP280;64699;0.000;0.000;2023-06-14T00:10:09;100691.56;;;20.45
76007;BMP280;64699;0.000;0.000;2023-06-14T00:12:34;100692.88;;;20.44
76007;BMP280;64699;0.000;0.000;2023-06-14T00:15:00;100693.59;;;20.45
76007;BMP280;64699;0.000;0.000;2023-06-14T00:17:26;100687.34;;;20.44
76007;BMP280;64699;0.000;0.000;2023-06-14T00:19:55;100685.88;;;20.43
76007;BMP280;64699;0.000;0.000;2023-06-14T00:22:21;100685.88;;;20.43
76007;BMP280;64699;0.000;0.000;2023-06-14T00:24:49;100681.81;;;20.44
76007;BMP280;64699;0.000;0.000;2023-06-14T00:27:14;100686.59;;;20.44
76007;BMP280;64699;0.000;0.000;2023-06-14T00:29:40;100682.56;;;20.45
76007;BMP280;64699;0.000;0.000;2023-06-14T00:32:05;100683.84;;;20.44
76007;BMP280;64699;0.000;0.000;2023-06-14T00:34:30;100681.81;;;20.44
76007;BMP280;64699;0.000;0.000;2023-06-14T00:36:56;100681.06;;;20.44
76007;BMP280;64699;0.000;0.000;2023-06-14T00:39:21;100684.25;;;20.48
76007;BMP280;64699;0.000;0.000;2023-06-14T00:41:46;100680.53;;;20.45
76007;BMP280;64699;0.000;0.000;2023-06-14T00:44:11;100677.75;;;20.45
76007;BMP280;64699;0.000;0.000;2023-06-14T00:46:38;100677.03;;;20.45
76007;BMP280;64699;0.000;0.000;2023-06-14T00:49:03;100676.31;;;20.44
76007;BMP280;64699;0.000;0.000;2023-06-14T00:51:28;100683.84;;;20.44
76007;BMP280;64699;0.000;0.000;2023-06-14T00:53:53;100674.81;;;20.43
76007;BMP280;64699;0.000;0.000;2023-06-14T00:56:19;100680.34;;;20.43
76007;BMP280;64699;0.000;0.000;2023-06-14T00:58:45;100675.56;;;20.44
76007;BMP280;64699;0.000;0.000;2023-06-14T01:01:10;100678.31;;;20.44
76007;BMP280;64699;0.000;0.000;2023-06-14T01:03:36;100680.34;;;20.43
76007;BMP280;64699;0.000;0.000;2023-06-14T01:06:07;100670.03;;;20.44
76007;BMP280;64699;0.000;0.000;2023-06-14T01:08:50;100674.28;;;20.45
76007;BMP280;64699;0.000;0.000;2023-06-14T01:11:18;100674.81;;;20.43
76007;BMP280;64699;0.000;0.000;2023-06-14T01:13:45;100677.75;;;20.45
76007;BMP280;64699;0.000;0.000;2023-06-14T01:16:11;100674.81;;;20.43
76007;BMP280;64699;0.000;0.000;2023-06-14T01:18:36;100670.03;;;20.44
76007;BMP280;64699;0.000;0.000;2023-06-14T01:21:02;100671.31;;;20.43
76007;BMP280;64699;0.000;0.000;2023-06-14T01:23:31;100670.56;;;20.42
76007;BMP280;64699;0.000;0.000;2023-06-14T01:25:58;100666.34;;;20.41
76007;BMP280;64699;0.000;0.000;2023-06-14T01:28:23;100661.53;;;20.42
76007;BMP280;64699;0.000;0.000;2023-06-14T01:30:49;100661.53;;;20.42
76007;BMP280;64699;0.000;0.000;2023-06-14T01:33:19;100663.56;;;20.41
76007;BMP280;64699;0.000;0.000;2023-06-14T01:35:46;100661.53;;;20.42
76007;BMP280;64699;0.000;0.000;2023-06-14T01:38:12;100658.25;;;20.43
76007;BMP280;64699;0.000;0.000;2023-06-14T01:40:37;100666.53;;;20.43
76007;BMP280;64699;0.000;0.000;2023-06-14T01:43:03;100651.78;;;20.41
76007;BMP280;64699;0.000;0.000;2023-06-14T01:45:29;100660.81;;;20.41
76007;BMP280;64699;0.000;0.000;2023-06-14T01:47:54;100667.81;;;20.42
76007;BMP280;64699;0.000;0.000;2023-06-14T01:50:20;100658.06;;;20.41
76007;BMP280;64699;0.000;0.000;2023-06-14T01:52:46;100663.56;;;20.41
76007;BMP280;64699;0.000;0.000;2023-06-14T01:55:11;100663.56;;;20.41
76007;BMP280;64699;0.000;0.000;2023-06-14T01:57:36;100662.13;;;20.40
76007;BMP280;64699;0.000;0.000;2023-06-14T02:00:02;100659.53;;;20.42
76007;BMP280;64699;0.000;0.000;2023-06-14T02:02:28;100656.22;;;20.44
76007;BMP280;64699;0.000;0.000;2023-06-14T02:04:53;100659.00;;;20.44
76007;BMP280;64699;0.000;0.000;2023-06-14T02:07:22;100659.00;;;20.44
76007;BMP280;64699;0.000;0.000;2023-06-14T02:09:47;100655.50;;;20.43
76007;BMP280;64699;0.000;0.000;2023-06-14T02:12:12;100659.75;;;20.44
76007;BMP280;64699;0.000;0.000;2023-06-14T02:14:38;100658.44;;;20.45
76007;BMP280;64699;0.000;0.000;2023-06-14T02:17:03;100656.66;;;20.48
76007;BMP280;64699;0.000;0.000;2023-06-14T02:19:28;100660.16;;;20.48
76007;BMP280;64699;0.000;0.000;2023-06-14T02:21:53;100658.44;;;20.45
76007;BMP280;64699;0.000;0.000;2023-06-14T02:24:19;100655.69;;;20.45
76007;BMP280;64699;0.000;0.000;2023-06-14T02:26:45;100648.50;;;20.42
76007;BMP280;64699;0.000;0.000;2023-06-14T02:29:10;100649.03;;;20.41
76007;BMP280;64699;0.000;0.000;2023-06-14T02:31:37;100645.56;;;20.40
76007;BMP280;64699;0.000;0.000;2023-06-14T02:34:02;100649.56;;;20.39
76007;BMP280;64699;0.000;0.000;2023-06-14T02:36:28;100634.16;;;20.23
76007;BMP280;64699;0.000;0.000;2023-06-14T02:38:55;100641.84;;;20.38
76007;BMP280;64699;0.000;0.000;2023-06-14T02:41:22;100645.56;;;20.40
76007;BMP280;64699;0.000;0.000;2023-06-14T02:43:48;100644.97;;;20.42
76007;BMP280;64699;0.000;0.000;2023-06-14T02:46:13;100646.47;;;20.43
76007;BMP280;64699;0.000;0.000;2023-06-14T02:48:38;100641.72;;;20.43
76007;BMP280;64699;0.000;0.000;2023-06-14T02:51:03;100645.75;;;20.42
76007;BMP280;64699;0.000;0.000;2023-06-14T02:53:28;100616.53;;;20.26
76007;BMP280;64699;0.000;0.000;2023-06-14T02:55:54;100645.75;;;20.42
76007;BMP280;64699;0.000;0.000;2023-06-14T02:58:20;100640.22;;;20.42
76007;BMP280;64699;0.000;0.000;2023-06-14T03:00:45;100637.47;;;20.42
76007;BMP280;64699;0.000;0.000;2023-06-14T03:03:10;100636.72;;;20.42
76007;BMP280;64699;0.000;0.000;2023-06-14T03:05:43;100640.22;;;20.42
76007;BMP280;64699;0.000;0.000;2023-06-14T03:08:11;100629.19;;;20.42
76007;BMP280;64699;0.000;0.000;2023-06-14T03:10:41;100627.69;;;20.41
76007;BMP280;64699;0.000;0.000;2023-06-14T03:13:08;100632.47;;;20.41
76007;BMP280;64699;0.000;0.000;2023-06-14T03:15:33;100629.00;;;20.40
76007;BMP280;64699;0.000;0.000;2023-06-14T03:17:58;100631.75;;;20.40
76007;BMP280;64699;0.000;0.000;2023-06-14T03:20:24;100630.47;;;20.41
76007;BMP280;64699;0.000;0.000;2023-06-14T03:22:53;100637.28;;;20.40
76007;BMP280;64699;0.000;0.000;2023-06-14T03:25:19;100635.22;;;20.41
76007;BMP280;64699;0.000;0.000;2023-06-14T03:27:45;100629.19;;;20.42
76007;BMP280;64699;0.000;0.000;2023-06-14T03:30:11;100643.50;;;20.41
76007;BMP280;64699;0.000;0.000;2023-06-14T03:32:36;100630.13;;;20.45
76007;BMP280;64699;0.000;0.000;2023-06-14T03:35:01;100635.09;;;20.46
76007;BMP280;64699;0.000;0.000;2023-06-14T03:37:26;100646.69;;;20.45
76007;BMP280;64699;0.000;0.000;2023-06-14T03:39:51;100636.19;;;20.43
76007;BMP280;64699;0.000;0.000;2023-06-14T03:42:17;100624.38;;;20.43
76007;BMP280;64699;0.000;0.000;2023-06-14T03:44:42;100632.47;;;20.41
76007;BMP280;64699;0.000;0.000;2023-06-14T03:47:08;100625.66;;;20.42
76007;BMP280;64699;0.000;0.000;2023-06-14T03:49:33;100625.16;;;20.43
76007;BMP280;64699;0.000;0.000;2023-06-14T03:51:58;100631.94;;;20.42
76007;BMP280;64699;0.000;0.000;2023-06-14T03:54:24;100623.66;;;20.42
76007;BMP280;64699;0.000;0.000;2023-06-14T03:56:49;100629.91;;;20.43
76007;BMP280;64699;0.000;0.000;2023-06-14T03:59:14;100632.66;;;20.43
76007;BMP280;64699;0.000;0.000;2023-06-14T04:01:40;100640.94;;;20.43
76007;BMP280;64699;0.000;0.000;2023-06-14T04:04:11;100642.97;;;20.42
76007;BMP280;64699;0.000;0.000;2023-06-14T04:06:36;100647.22;;;20.43
76007;BMP280;64699;0.000;0.000;2023-06-14T04:09:02;100642.44;;;20.44
76007;BMP280;64699;0.000;0.000;2023-06-14T04:11:27;100649.22;;;20.43
76007;BMP280;64699;0.000;0.000;2023-06-14T04:13:52;100643.19;;;20.44
76007;BMP280;64699;0.000;0.000;2023-06-14T04:16:18;100641.16;;;20.45
76007;BMP280;64699;0.000;0.000;2023-06-14T04:18:44;100639.88;;;20.46
76007;BMP280;64699;0.000;0.000;2023-06-14T04:21:09;100645.41;;;20.46
76007;BMP280;64699;0.000;0.000;2023-06-14T04:23:34;100639.88;;;20.46
76007;BMP280;64699;0.000;0.000;2023-06-14T04:25:59;100646.13;;;20.46
76007;BMP280;64699;0.000;0.000;2023-06-14T04:28:27;100642.84;;;20.48
76007;BMP280;64699;0.000;0.000;2023-06-14T04:30:52;100637.34;;;20.48
76007;BMP280;64699;0.000;0.000;2023-06-14T04:33:18;100637.34;;;20.48
76007;BMP280;64699;0.000;0.000;2023-06-14T04:35:44;100639.34;;;20.47
76007;BMP280;64699;0.000;0.000;2023-06-14T04:38:12;100643.59;;;20.48
76007;BMP280;64699;0.000;0.000;2023-06-14T04:40:37;100645.41;;;20.46
76007;BMP280;64699;0.000;0.000;2023-06-14T04:43:10;100648.38;;;20.48
76007;BMP280;64699;0.000;0.000;2023-06-14T04:45:42;100640.59;;;20.46
76007;BMP280;64699;0.000;0.000;2023-06-14T04:48:10;100642.84;;;20.48
76007;BMP280;64699;0.000;0.000;2023-06-14T04:50:35;100646.38;;;20.48
76007;BMP280;64699;0.000;0.000;2023-06-14T04:53:00;100644.66;;;20.45
76007;BMP280;64699;0.000;0.000;2023-06-14T04:55:25;100647.41;;;20.45
76007;BMP280;64699;0.000;0.000;2023-06-14T04:57:51;100646.13;;;20.46
76007;BMP280;64699;0.000;0.000;2023-06-14T05:00:18;100648.88;;;20.46
76007;BMP280;64699;0.000;0.000;2023-06-14T05:02:43;100644.72;;;20.53
76007;BMP280;64699;0.000;0.000;2023-06-14T05:05:09;100646.13;;;20.67
76007;BMP280;64699;0.000;0.000;2023-06-14T05:07:34;100643.91;;;20.65
76007;BMP280;64699;0.000;0.000;2023-06-14T05:09:59;100649.81;;;20.69
76007;BMP280;64699;0.000;0.000;2023-06-14T05:12:25;100651.59;;;20.59
76007;BMP280;64699;0.000;0.000;2023-06-14T05:14:50;100655.03;;;20.52
76007;BMP280;64699;0.000;0.000;2023-06-14T05:17:15;100649.13;;;20.48
76007;BMP280;64699;0.000;0.000;2023-06-14T05:19:42;100655.69;;;20.45
76007;BMP280;64699;0.000;0.000;2023-06-14T05:22:07;100657.50;;;20.43
76007;BMP280;64699;0.000;0.000;2023-06-14T05:24:32;100653.25;;;20.42
76007;BMP280;64699;0.000;0.000;2023-06-14T05:26:57;100662.13;;;20.40
76007;BMP280;64699;0.000;0.000;2023-06-14T05:29:23;100671.66;;;20.39
76007;BMP280;64699;0.000;0.000;2023-06-14T05:31:50;100667.41;;;20.38
76007;BMP280;64699;0.000;0.000;2023-06-14T05:34:15;100654.16;;;20.37
76007;BMP280;64699;0.000;0.000;2023-06-14T05:36:40;100653.38;;;20.36
76007;BMP280;64699;0.000;0.000;2023-06-14T05:39:05;100644.38;;;20.36
76007;BMP280;64699;0.000;0.000;2023-06-14T05:41:31;100653.22;;;20.34
76007;BMP280;64699;0.000;0.000;2023-06-14T05:43:57;100652.97;;;20.32
76007;BMP280;64699;0.000;0.000;2023-06-14T05:46:22;100646.22;;;20.33
76007;BMP280;64699;0.000;0.000;2023-06-14T05:48:50;100650.97;;;20.33
76007;BMP280;64699;0.000;0.000;2023-06-14T05:51:16;100647.44;;;20.32
76007;BMP280;64699;0.000;0.000;2023-06-14T05:53:44;100647.44;;;20.32
76007;BMP280;64699;0.000;0.000;2023-06-14T05:56:09;100654.47;;;20.33
76007;BMP280;64699;0.000;0.000;2023-06-14T05:58:34;100652.97;;;20.32
76007;BMP280;64699;0.000;0.000;2023-06-14T06:01:00;100652.97;;;20.32
76007;BMP280;64699;0.000;0.000;2023-06-14T06:03:26;100651.50;;;20.31
76007;BMP280;64699;0.000;0.000;2023-06-14T06:05:54;100648.75;;;20.31
76007;BMP280;64699;0.000;0.000;2023-06-14T06:08:19;100657.78;;;20.32
76007;BMP280;64699;0.000;0.000;2023-06-14T06:10:45;100658.31;;;20.30
76007;BMP280;64699;0.000;0.000;2023-06-14T06:13:10;100647.28;;;20.30
76007;BMP280;64699;0.000;0.000;2023-06-14T06:15:35;100663.81;;;20.30
76007;BMP280;64699;0.000;0.000;2023-06-14T06:18:01;100654.81;;;20.30
76007;BMP280;64699;0.000;0.000;2023-06-14T06:20:26;100666.59;;;20.30
76007;BMP280;64699;0.000;0.000;2023-06-14T06:22:53;100656.81;;;20.29
76007;BMP280;64699;0.000;0.000;2023-06-14T06:25:18;100657.03;;;20.31
76007;BMP280;64699;0.000;0.000;2023-06-14T06:27:44;100657.78;;;20.32
76007;BMP280;64699;0.000;0.000;2023-06-14T06:30:09;100657.03;;;20.31
76007;BMP280;64699;0.000;0.000;2023-06-14T06:32:35;100663.81;;;20.30
76007;BMP280;64699;0.000;0.000;2023-06-14T06:35:00;100661.06;;;20.30
76007;BMP280;64699;0.000;0.000;2023-06-14T06:37:26;100659.78;;;20.31
76007;BMP280;64699;0.000;0.000;2023-06-14T06:39:51;100653.56;;;20.31
76007;BMP280;64699;0.000;0.000;2023-06-14T06:42:16;100658.31;;;20.30
76007;BMP280;64699;0.000;0.000;2023-06-14T06:44:41;100658.31;;;20.30
76007;BMP280;64699;0.000;0.000;2023-06-14T06:47:07;100658.31;;;20.30
76007;BMP280;64699;0.000;0.000;2023-06-14T06:49:32;100660.34;;;20.30
76007;BMP280;64699;0.000;0.000;2023-06-14T06:52:01;100659.59;;;20.29
76007;BMP280;64699;0.000;0.000;2023-06-14T06:54:27;100654.81;;;20.30
76007;BMP280;64699;0.000;0.000;2023-06-14T06:56:52;100659.59;;;20.29
76007;BMP280;64699;0.000;0.000;2023-06-14T06:59:17;100672.09;;;20.30
76007;BMP280;64699;0.000;0.000;2023-06-14T07:01:42;100670.63;;;20.29
76007;BMP280;64699;0.000;0.000;2023-06-14T07:04:08;100669.88;;;20.29
76007;BMP280;64699;0.000;0.000;2023-06-14T07:06:33;100674.88;;;20.30
76007;BMP280;64699;0.000;0.000;2023-06-14T07:08:58;100686.78;;;20.25
76007;BMP280;64699;0.000;0.000;2023-06-14T07:11:26;100677.91;;;20.19
76007;BMP280;64699;0.000;0.000;2023-06-14T07:13:51;100691.28;;;20.15
76007;BMP280;64699;0.000;0.000;2023-06-14T07:16:17;100680.03;;;20.13
76007;BMP280;64699;0.000;0.000;2023-06-14T07:18:42;100681.84;;;20.11
76007;BMP280;64699;0.000;0.000;2023-06-14T07:21:07;100682.16;;;20.07
76007;BMP280;64699;0.000;0.000;2023-06-14T07:23:33;100683.63;;;20.08
76007;BMP280;64699;0.000;0.000;2023-06-14T07:25:58;100681.84;;;20.11
76007;BMP280;64699;0.000;0.000;2023-06-14T07:28:23;100681.50;;;20.14
76007;BMP280;64699;0.000;0.000;2023-06-14T07:30:48;100677.16;;;20.19
76007;BMP280;64699;0.000;0.000;2023-06-14T07:33:13;100680.09;;;20.21
76007;BMP280;64699;0.000;0.000;2023-06-14T07:35:39;100680.84;;;20.21
76007;BMP280;64699;0.000;0.000;2023-06-14T07:38:04;100678.28;;;20.23
76007;BMP280;64699;0.000;0.000;2023-06-14T07:40:29;100690.09;;;20.24
76007;BMP280;64699;0.000;0.000;2023-06-14T07:42:54;100683.81;;;20.23
76007;BMP280;64699;0.000;0.000;2023-06-14T07:45:20;100689.53;;;20.25
76007;BMP280;64699;0.000;0.000;2023-06-14T07:47:45;100685.28;;;20.24
76007;BMP280;64699;0.000;0.000;2023-06-14T07:50:10;100689.53;;;20.25
76007;BMP280;64699;0.000;0.000;2023-06-14T07:52:37;100679.75;;;20.24
76007;BMP280;64699;0.000;0.000;2023-06-14T07:55:03;100690.09;;;20.24
76007;BMP280;64699;0.000;0.000;2023-06-14T07:57:28;100686.56;;;20.23
76007;BMP280;64699;0.000;0.000;2023-06-14T07:59:53;100692.84;;;20.24
76007;BMP280;64699;0.000;0.000;2023-06-14T08:02:18;100685.28;;;20.24
76007;BMP280;64699;0.000;0.000;2023-06-14T08:04:44;100697.59;;;20.23
76007;BMP280;64699;0.000;0.000;2023-06-14T08:07:09;100692.84;;;20.24
76007;BMP280;64699;0.000;0.000;2023-06-14T08:09:34;100699.63;;;20.23
76007;BMP280;64699;0.000;0.000;2023-06-14T08:12:00;100692.84;;;20.24
76007;BMP280;64699;0.000;0.000;2023-06-14T08:14:25;100696.88;;;20.23
76007;BMP280;64699;0.000;0.000;2023-06-14T08:16:50;100700.38;;;20.23
76007;BMP280;64699;0.000;0.000;2023-06-14T08:19:16;100702.41;;;20.23
76007;BMP280;64699;0.000;0.000;2023-06-14T08:21:41;100701.13;;;20.24
76007;BMP280;64699;0.000;0.000;2023-06-14T08:24:07;100698.88;;;20.22
76007;BMP280;64699;0.000;0.000;2023-06-14T08:26:32;100699.63;;;20.23
76007;BMP280;64699;0.000;0.000;2023-06-14T08:28:57;100703.13;;;20.23
76007;BMP280;64699;0.000;0.000;2023-06-14T08:31:23;100699.63;;;20.23
76007;BMP280;64699;0.000;0.000;2023-06-14T08:33:49;100694.13;;;20.23
76007;BMP280;64699;0.000;0.000;2023-06-14T08:36:14;100682.31;;;20.22
76007;BMP280;64699;0.000;0.000;2023-06-14T08:38:39;100681.59;;;20.22
76007;BMP280;64699;0.000;0.000;2023-06-14T08:41:05;100692.63;;;20.22
76007;BMP280;64699;0.000;0.000;2023-06-14T08:43:33;100690.59;;;20.22
76007;BMP280;64699;0.000;0.000;2023-06-14T08:46:00;100678.09;;;20.21
76007;BMP280;64699;0.000;0.000;2023-06-14T08:48:28;100685.09;;;20.22
76007;BMP280;64699;0.000;0.000;2023-06-14T08:50:56;100695.41;;;20.22
76007;BMP280;64699;0.000;0.000;2023-06-14T08:53:26;100690.59;;;20.22
76007;BMP280;64699;0.000;0.000;2023-06-14T08:55:53;100686.34;;;20.21
76007;BMP280;64699;0.000;0.000;2023-06-14T08:58:20;100696.13;;;20.22
76007;BMP280;64699;0.000;0.000;2023-06-14T09:00:45;100686.34;;;20.21
76007;BMP280;64699;0.000;0.000;2023-06-14T09:03:11;100686.34;;;20.21
76007;BMP280;64699;0.000;0.000;2023-06-14T09:05:38;100689.13;;;20.21
76007;BMP280;64699;0.000;0.000;2023-06-14T09:08:04;100678.84;;;20.22
76007;BMP280;64699;0.000;0.000;2023-06-14T09:10:30;100673.84;;;20.20
76007;BMP280;64699;0.000;0.000;2023-06-14T09:12:58;100680.09;;;20.21
76007;BMP280;64699;0.000;0.000;2023-06-14T09:15:25;100675.31;;;20.21
76007;BMP280;64699;0.000;0.000;2023-06-14T09:17:50;100671.09;;;20.20
76007;BMP280;64699;0.000;0.000;2023-06-14T09:20:16;100671.09;;;20.20
76007;BMP280;64699;0.000;0.000;2023-06-14T09:22:44;100676.09;;;20.22
76007;BMP280;64699;0.000;0.000;2023-06-14T09:25:10;100679.56;;;20.22
76007;BMP280;64699;0.000;0.000;2023-06-14T09:27:36;100678.63;;;20.20
76007;BMP280;64699;0.000;0.000;2023-06-14T09:30:04;100668.31;;;20.20
76007;BMP280;64699;0.000;0.000;2023-06-14T09:32:30;100668.31;;;20.20
76007;BMP280;64699;0.000;0.000;2023-06-14T09:34:55;100675.31;;;20.21
76007;BMP280;64699;0.000;0.000;2023-06-14T09:37:30;100673.84;;;20.20
76007;BMP280;64699;0.000;0.000;2023-06-14T09:39:56;100676.59;;;20.20
76007;BMP280;64699;0.000;0.000;2023-06-14T09:42:21;100671.09;;;20.20
76007;BMP280;64699;0.000;0.000;2023-06-14T09:44:48;100676.59;;;20.20
76007;BMP280;64699;0.000;0.000;2023-06-14T09:47:17;100679.34;;;20.20
76007;BMP280;64699;0.000;0.000;2023-06-14T09:49:42;100680.84;;;20.21
76007;BMP280;64699;0.000;0.000;2023-06-14T09:52:18;100679.34;;;20.20
76007;BMP280;64699;0.000;0.000;2023-06-14T09:54:43;100681.38;;;20.20
76007;BMP280;64699;0.000;0.000;2023-06-14T09:57:11;100673.84;;;20.20
76007;BMP280;64699;0.000;0.000;2023-06-14T09:59:36;100678.63;;;20.20
76007;BMP280;64699;0.000;0.000;2023-06-14T10:02:05;100677.16;;;20.19
76007;BMP280;64699;0.000;0.000;2023-06-14T10:04:32;100647.91;;;20.03
76007;BMP280;64699;0.000;0.000;2023-06-14T10:06:59;100666.88;;;20.19
76007;BMP280;64699;0.000;0.000;2023-06-14T10:09:25;100677.91;;;20.19
76007;BMP280;64699;0.000;0.000;2023-06-14T10:11:50;100680.44;;;20.17
76007;BMP280;64699;0.000;0.000;2023-06-14T10:14:16;100689.78;;;20.14
76007;BMP280;64699;0.000;0.000;2023-06-14T10:16:47;100686.31;;;20.14
76007;BMP280;64699;0.000;0.000;2023-06-14T10:19:24;100689.56;;;20.12
76007;BMP280;64699;0.000;0.000;2023-06-14T10:22:01;100685.53;;;20.13
76007;BMP280;64699;0.000;0.000;2023-06-14T10:24:29;100689.56;;;20.12
76007;BMP280;64699;0.000;0.000;2023-06-14T10:26:57;100688.13;;;20.11
76007;BMP280;64699;0.000;0.000;2023-06-14T10:29:22;100680.34;;;20.10
76007;BMP280;64699;0.000;0.000;2023-06-14T10:31:48;100688.63;;;20.10
76007;BMP280;64699;0.000;0.000;2023-06-14T10:34:27;100682.38;;;20.09
76007;BMP280;64699;0.000;0.000;2023-06-14T10:37:04;100686.97;;;20.07
76007;BMP280;64699;0.000;0.000;2023-06-14T10:39:30;100676.44;;;20.05
76007;BMP280;64699;0.000;0.000;2023-06-14T10:41:56;100676.97;;;20.04
76007;BMP280;64699;0.000;0.000;2023-06-14T10:46:52;100669.00;;;20.00
76007;BMP280;64699;0.000;0.000;2023-06-14T10:49:17;100673.81;;;20.00
76007;BMP280;64699;0.000;0.000;2023-06-14T10:51:51;100666.25;;;20.00
76007;BMP280;64699;0.000;0.000;2023-06-14T10:54:20;100676.03;;;20.01
76007;BMP280;64699;0.000;0.000;2023-06-14T10:56:46;100673.25;;;20.01
76007;BMP280;64699;0.000;0.000;2023-06-14T10:59:12;100674.78;;;20.02
76007;BMP280;64699;0.000;0.000;2023-06-14T11:01:41;100674.78;;;20.02
76007;BMP280;64699;0.000;0.000;2023-06-14T11:04:12;100677.53;;;20.02
76007;BMP280;64699;0.000;0.000;2023-06-14T11:06:45;100667.22;;;20.03
76007;BMP280;64699;0.000;0.000;2023-06-14T11:11:44;100659.25;;;19.99
76007;BMP280;64699;0.000;0.000;2023-06-14T11:14:10;100661.50;;;20.01
76007;BMP280;64699;0.000;0.000;2023-06-14T11:16:36;100659.47;;;20.01
76007;BMP280;64699;0.000;0.000;2023-06-14T11:19:02;100655.47;;;20.02
76007;BMP280;64699;0.000;0.000;2023-06-14T11:21:28;100665.19;;;20.03
76007;BMP280;64699;0.000;0.000;2023-06-14T11:23:56;100646.63;;;20.04
76007;BMP280;64699;0.000;0.000;2023-06-14T11:26:25;100651.63;;;20.05
76007;BMP280;64699;0.000;0.000;2023-06-14T11:28:54;100661.16;;;20.04
76007;BMP280;64699;0.000;0.000;2023-06-14T11:31:19;100665.19;;;20.03
76007;BMP280;64699;0.000;0.000;2023-06-14T11:33:48;100655.97;;;20.01
76007;BMP280;64699;0.000;0.000;2023-06-14T11:36:15;100658.75;;;20.01
76007;BMP280;64699;0.000;0.000;2023-06-14T11:38:40;100657.47;;;20.02
76007;BMP280;64699;0.000;0.000;2023-06-14T11:41:05;100661.72;;;20.03
76007;BMP280;64699;0.000;0.000;2023-06-14T11:43:31;100658.97;;;20.03
76007;BMP280;64699;0.000;0.000;2023-06-14T11:45:58;100661.16;;;20.04
76007;BMP280;64699;0.000;0.000;2023-06-14T11:48:23;100649.72;;;20.00
76007;BMP280;64699;0.000;0.000;2023-06-14T11:51:00;100649.72;;;20.00
76007;BMP280;64699;0.000;0.000;2023-06-14T11:53:25;100647.19;;;20.02
76007;BMP280;64699;0.000;0.000;2023-06-14T11:55:51;100650.13;;;20.04
76007;BMP280;64699;0.000;0.000;2023-06-14T11:58:16;100651.63;;;20.05
76007;BMP280;64699;0.000;0.000;2023-06-14T12:00:42;100648.34;;;20.07
76007;BMP280;64699;0.000;0.000;2023-06-14T12:03:08;100647.78;;;20.08
76007;BMP280;64699;0.000;0.000;2023-06-14T12:05:33;100650.53;;;20.08
76007;BMP280;64699;0.000;0.000;2023-06-14T12:07:59;100645.78;;;20.09
76007;BMP280;64699;0.000;0.000;2023-06-14T12:10:25;100643.78;;;20.09
76007;BMP280;64699;0.000;0.000;2023-06-14T12:12:50;100640.25;;;20.09
76007;BMP280;64699;0.000;0.000;2023-06-14T12:15:16;100642.25;;;20.08
76007;BMP280;64699;0.000;0.000;2023-06-14T12:17:42;100632.72;;;20.09
76007;BMP280;64699;0.000;0.000;2023-06-14T12:20:09;100630.69;;;20.10
76007;BMP280;64699;0.000;0.000;2023-06-14T12:22:52;100629.97;;;20.09
76007;BMP280;64699;0.000;0.000;2023-06-14T12:25:28;100624.47;;;20.09
76007;BMP280;64699;0.000;0.000;2023-06-14T12:27:56;100628.69;;;20.10
76007;BMP280;64699;0.000;0.000;2023-06-14T12:30:22;100626.66;;;20.11
76007;BMP280;64699;0.000;0.000;2023-06-14T12:32:47;100632.19;;;20.11
76007;BMP280;64699;0.000;0.000;2023-06-14T12:35:13;100625.94;;;20.10
76007;BMP280;64699;0.000;0.000;2023-06-14T12:37:38;100632.94;;;20.11
76007;BMP280;64699;0.000;0.000;2023-06-14T12:40:03;100627.44;;;20.11
76007;BMP280;64699;0.000;0.000;2023-06-14T12:42:30;100624.66;;;20.11
76007;BMP280;64699;0.000;0.000;2023-06-14T12:44:56;100626.66;;;20.11
76007;BMP280;64699;0.000;0.000;2023-06-14T12:47:21;100632.94;;;20.11
76007;BMP280;64699;0.000;0.000;2023-06-14T12:49:46;100625.38;;;20.12
76007;BMP280;64699;0.000;0.000;2023-06-14T12:52:11;100628.88;;;20.12
76007;BMP280;64699;0.000;0.000;2023-06-14T12:54:37;100626.84;;;20.13
76007;BMP280;64699;0.000;0.000;2023-06-14T12:57:04;100611.56;;;20.12
76007;BMP280;64699;0.000;0.000;2023-06-14T12:59:29;100612.34;;;20.12
76007;BMP280;64699;0.000;0.000;2023-06-14T13:01:58;100609.56;;;20.12
76007;BMP280;64699;0.000;0.000;2023-06-14T13:04:23;100613.81;;;20.13
76007;BMP280;64699;0.000;0.000;2023-06-14T13:06:48;100609.06;;;20.14
76007;BMP280;64699;0.000;0.000;2023-06-14T13:09:20;100616.56;;;20.13
76007;BMP280;64699;0.000;0.000;2023-06-14T13:11:53;100605.53;;;20.13
76007;BMP280;64699;0.000;0.000;2023-06-14T13:14:19;100613.06;;;20.13
76007;BMP280;64699;0.000;0.000;2023-06-14T13:16:44;100610.31;;;20.13
76007;BMP280;64699;0.000;0.000;2023-06-14T13:19:09;100602.03;;;20.13
76007;BMP280;64699;0.000;0.000;2023-06-14T13:21:35;100604.78;;;20.13
76007;BMP280;64699;0.000;0.000;2023-06-14T13:24:01;100600.53;;;20.12
76007;BMP280;64699;0.000;0.000;2023-06-14T13:26:26;100591.63;;;20.19
76007;BMP280;64699;0.000;0.000;2023-06-14T13:28:51;100601.25;;;20.25
76007;BMP280;64699;0.000;0.000;2023-06-14T13:31:17;100600.50;;;20.25
76007;BMP280;64699;0.000;0.000;2023-06-14T13:33:42;100593.84;;;20.20
76007;BMP280;64699;0.000;0.000;2023-06-14T13:36:07;100594.38;;;20.19
76007;BMP280;64699;0.000;0.000;2023-06-14T13:38:32;100594.94;;;20.17
76007;BMP280;64699;0.000;0.000;2023-06-14T13:40:57;100600.44;;;20.17
76007;BMP280;64699;0.000;0.000;2023-06-14T13:43:23;100595.44;;;20.16
76007;BMP280;64699;0.000;0.000;2023-06-14T13:45:48;100599.69;;;20.17
76007;BMP280;64699;0.000;0.000;2023-06-14T13:48:13;100611.28;;;20.15
76007;BMP280;64699;0.000;0.000;2023-06-14T13:50:38;100607.22;;;20.16
76007;BMP280;64699;0.000;0.000;2023-06-14T13:53:04;100612.53;;;20.14
76007;BMP280;64699;0.000;0.000;2023-06-14T13:55:29;100608.31;;;20.13
76007;BMP280;64699;0.000;0.000;2023-06-14T13:57:55;100608.13;;;20.11
76007;BMP280;64699;0.000;0.000;2023-06-14T14:00:21;100610.13;;;20.11
76007;BMP280;64699;0.000;0.000;2023-06-14T14:02:47;100606.63;;;20.10
76007;BMP280;64699;0.000;0.000;2023-06-14T14:05:12;100603.88;;;20.10
76007;BMP280;64699;0.000;0.000;2023-06-14T14:07:37;100609.41;;;20.10